Time;durP1;ratioP1;P1;durP2;ratioP2;P2;SDS_P1;SDS_P2;PMS_P1;PMS_P2;Temp;Humidity;BMP_temperature;BMP_pressure;BME280_temperature;BME280_humidity;BME280_pressure;Samples;Min_cycle;Max_cycle;Signal;HPM_P1;HPM_P2
2021/06/08 04:02:11;;;;;;;48.23;42.50;;;17.90;99.90;;;;;;5177972;23;20549;-64
2021/06/08 04:04:38;;;;;;;53.43;45.30;;;17.90;99.90;;;;;;4978140;28;20505;-64
2021/06/08 04:07:04;;;;;;;52.93;43.63;;;17.90;99.90;;;;;;4977331;28;20463;-64
2021/06/08 04:09:30;;;;;;;48.20;42.57;;;17.80;99.90;;;;;;4978156;28;20458;-65
2021/06/08 04:11:57;;;;;;;53.97;43.43;;;17.80;99.90;;;;;;4982175;28;20471;-64
2021/06/08 04:14:23;;;;;;;53.50;44.90;;;17.80;99.90;;;;;;4984848;28;20913;-64
2021/06/08 04:16:50;;;;;;;50.80;44.57;;;17.80;99.90;;;;;;4977479;28;20914;-63
2021/06/08 04:19:17;;;;;;;52.03;45.70;;;17.90;99.90;;;;;;4977665;28;20458;-64
2021/06/08 04:21:48;;;;;;;48.57;42.70;;;17.80;99.90;;;;;;4977537;28;20479;-64
2021/06/08 04:24:14;;;;;;;54.63;45.63;;;17.90;99.90;;;;;;4977892;28;20443;-64
2021/06/08 04:26:41;;;;;;;53.60;43.27;;;17.90;99.90;;;;;;4977400;28;20822;-64
2021/06/08 04:29:07;;;;;;;47.53;42.30;;;18.00;99.90;;;;;;4976857;28;20459;-64
2021/06/08 04:31:35;;;;;;;50.13;42.30;;;18.00;99.90;;;;;;4977979;28;20479;-64
2021/06/08 04:34:01;;;;;;;47.70;42.33;;;18.10;99.90;;;;;;4977026;28;20451;-64
2021/06/08 04:36:28;;;;;;;45.80;40.80;;;18.10;99.90;;;;;;4976860;28;20451;-64
2021/06/08 04:38:55;;;;;;;51.20;41.87;;;18.10;99.90;;;;;;4978326;28;20462;-64
2021/06/08 04:41:21;;;;;;;46.43;40.70;;;18.10;99.90;;;;;;4977601;28;20474;-63
2021/06/08 04:43:48;;;;;;;46.93;41.40;;;18.10;99.90;;;;;;4977692;28;20455;-64
2021/06/08 04:46:16;;;;;;;46.63;40.70;;;18.20;99.90;;;;;;4977862;28;20868;-64
2021/06/08 04:48:43;;;;;;;45.03;40.20;;;18.20;99.90;;;;;;4978710;28;20466;-66
2021/06/08 04:51:10;;;;;;;46.83;41.50;;;18.20;99.90;;;;;;4977573;28;20926;-62
2021/06/08 04:53:38;;;;;;;44.73;39.40;;;18.30;99.90;;;;;;4977151;28;20450;-62
2021/06/08 04:56:06;;;;;;;38.13;34.23;;;18.30;99.90;;;;;;4976864;28;20490;-63
2021/06/08 04:58:32;;;;;;;38.77;34.00;;;18.50;99.90;;;;;;4977492;28;20457;-63
2021/06/08 05:01:05;;;;;;;36.63;32.90;;;18.50;99.90;;;;;;4977494;28;20536;-62
2021/06/08 05:03:37;;;;;;;37.37;33.87;;;18.60;99.90;;;;;;4977358;28;20446;-63
2021/06/08 05:06:08;;;;;;;37.13;33.57;;;18.50;99.90;;;;;;4985217;28;20439;-63
2021/06/08 05:08:38;;;;;;;38.17;34.30;;;18.60;99.90;;;;;;4980164;28;20449;-63
2021/06/08 05:11:13;;;;;;;38.50;34.97;;;18.50;99.90;;;;;;4977134;28;20482;-63
2021/06/08 05:13:42;;;;;;;35.87;32.40;;;18.70;99.90;;;;;;4990400;28;20437;-63
2021/06/08 05:16:08;;;;;;;35.93;32.67;;;18.70;99.90;;;;;;4980389;28;20466;-63
2021/06/08 05:18:37;;;;;;;35.23;31.83;;;18.70;99.90;;;;;;4976402;28;20505;-63
2021/06/08 05:21:19;;;;;;;37.70;34.20;;;18.70;99.90;;;;;;4955056;28;20541;-63
2021/06/08 05:23:47;;;;;;;38.17;34.53;;;18.80;99.90;;;;;;4976543;28;20897;-63
2021/06/08 05:26:15;;;;;;;37.30;33.80;;;18.70;99.90;;;;;;4976931;28;20454;-63
2021/06/08 05:28:42;;;;;;;37.97;34.47;;;18.80;99.90;;;;;;4976243;28;20462;-64
2021/06/08 05:31:08;;;;;;;39.10;35.40;;;18.80;99.90;;;;;;4975857;28;20997;-63
2021/06/08 05:33:35;;;;;;;38.33;34.43;;;18.70;99.90;;;;;;4975633;28;20513;-64
2021/06/08 05:36:01;;;;;;;40.50;36.40;;;18.70;99.90;;;;;;4976594;28;20972;-64
2021/06/08 05:38:33;;;;;;;41.23;37.10;;;18.70;99.90;;;;;;4977570;28;20454;-63
2021/06/08 05:41:03;;;;;;;40.63;37.03;;;18.60;99.90;;;;;;4976757;28;20502;-63
2021/06/08 05:43:30;;;;;;;39.27;35.10;;;18.60;99.90;;;;;;4976570;28;20510;-63
2021/06/08 05:45:57;;;;;;;40.80;35.30;;;18.60;99.90;;;;;;4976333;28;20462;-62
2021/06/08 05:48:23;;;;;;;42.73;37.20;;;18.60;99.90;;;;;;4976588;28;20470;-63
2021/06/08 05:50:53;;;;;;;40.37;36.07;;;18.60;99.90;;;;;;4976080;28;20973;-63
2021/06/08 05:53:20;;;;;;;41.10;37.20;;;18.60;99.90;;;;;;4976480;28;20517;-63
2021/06/08 05:55:51;;;;;;;39.50;35.90;;;18.70;99.90;;;;;;4976190;28;20474;-63
2021/06/08 05:58:22;;;;;;;39.77;35.70;;;18.80;99.90;;;;;;4975951;28;20439;-63
2021/06/08 06:00:51;;;;;;;40.50;36.53;;;18.60;99.90;;;;;;4976399;28;20486;-62
2021/06/08 06:03:18;;;;;;;39.40;35.57;;;18.70;99.90;;;;;;4975885;28;20462;-63
2021/06/08 06:05:46;;;;;;;38.30;34.63;;;18.80;99.90;;;;;;4975735;28;20459;-64
2021/06/08 06:08:12;;;;;;;40.50;36.50;;;18.80;99.90;;;;;;4975788;28;20542;-63
2021/06/08 06:10:38;;;;;;;37.53;34.23;;;18.90;99.90;;;;;;4987515;28;20459;-64
2021/06/08 06:13:07;;;;;;;37.53;34.00;;;18.90;99.90;;;;;;4986387;28;20475;-64
2021/06/08 06:15:34;;;;;;;38.47;34.87;;;19.10;99.90;;;;;;4975884;28;20458;-63
2021/06/08 06:18:02;;;;;;;38.77;35.07;;;19.00;99.90;;;;;;4975543;28;20450;-63
2021/06/08 06:20:29;;;;;;;38.17;34.43;;;19.10;99.90;;;;;;4975694;28;20459;-64
2021/06/08 06:22:55;;;;;;;36.20;32.77;;;19.10;99.90;;;;;;4975427;28;20455;-63
2021/06/08 06:25:22;;;;;;;36.73;33.33;;;19.20;99.90;;;;;;4975652;28;20530;-63
2021/06/08 06:27:48;;;;;;;37.30;33.87;;;19.30;99.90;;;;;;4975009;28;20471;-63
2021/06/08 06:30:16;;;;;;;37.00;33.77;;;19.30;99.90;;;;;;4975277;28;20461;-63
2021/06/08 06:32:44;;;;;;;37.20;33.80;;;19.30;99.90;;;;;;4975537;28;20458;-63
2021/06/08 06:35:13;;;;;;;36.13;32.83;;;19.30;99.90;;;;;;4976114;28;20465;-63
2021/06/08 06:37:41;;;;;;;37.83;34.33;;;19.30;99.90;;;;;;4975908;28;20462;-63
2021/06/08 06:40:12;;;;;;;38.47;34.87;;;19.30;99.90;;;;;;4975800;28;20546;-64
2021/06/08 06:42:42;;;;;;;39.33;35.47;;;19.20;99.90;;;;;;4975837;28;20446;-63
2021/06/08 06:45:11;;;;;;;38.30;34.90;;;19.10;99.90;;;;;;4985738;28;20509;-64
2021/06/08 06:47:37;;;;;;;37.03;33.60;;;19.20;99.90;;;;;;4981056;28;20474;-63
2021/06/08 06:50:06;;;;;;;39.17;35.60;;;19.20;99.90;;;;;;4979557;28;20463;-64
2021/06/08 06:52:36;;;;;;;36.70;33.40;;;19.20;99.90;;;;;;4979263;28;20510;-64
2021/06/08 06:55:04;;;;;;;38.43;34.77;;;19.20;99.90;;;;;;4979655;28;20493;-64
2021/06/08 06:57:32;;;;;;;36.30;33.00;;;19.30;99.90;;;;;;4978985;28;20510;-64
2021/06/08 06:59:58;;;;;;;35.90;32.40;;;19.30;99.90;;;;;;4979083;28;20458;-63
2021/06/08 07:02:25;;;;;;;35.23;32.03;;;19.40;99.90;;;;;;4978890;28;21023;-64
2021/06/08 07:04:51;;;;;;;34.43;31.23;;;19.50;99.90;;;;;;4979498;28;20469;-64
2021/06/08 07:07:19;;;;;;;36.47;33.20;;;19.60;99.90;;;;;;4979426;28;20478;-63
2021/06/08 07:09:49;;;;;;;37.33;33.73;;;19.70;99.90;;;;;;4979164;28;20487;-62
2021/06/08 07:12:18;;;;;;;36.40;33.00;;;19.70;99.90;;;;;;4979510;28;20545;-63
2021/06/08 07:14:45;;;;;;;36.07;32.83;;;19.70;99.90;;;;;;4979673;28;20461;-63
2021/06/08 07:17:12;;;;;;;36.33;32.80;;;19.70;99.90;;;;;;4979757;28;20450;-64
2021/06/08 07:19:38;;;;;;;34.37;31.20;;;19.60;99.90;;;;;;4979227;28;20442;-63
2021/06/08 07:22:05;;;;;;;36.07;32.80;;;19.70;99.90;;;;;;4979011;28;20489;-63
2021/06/08 07:24:33;;;;;;;35.43;32.13;;;19.60;99.90;;;;;;4979400;28;20459;-63
2021/06/08 07:27:01;;;;;;;38.23;34.53;;;19.70;99.90;;;;;;4979598;28;20481;-62
2021/06/08 07:29:27;;;;;;;34.10;31.00;;;19.80;99.90;;;;;;4979206;28;20547;-63
2021/06/08 07:31:58;;;;;;;33.97;30.87;;;19.90;99.90;;;;;;4979389;28;20862;-63
2021/06/08 07:34:28;;;;;;;36.07;32.73;;;20.00;99.90;;;;;;4979534;28;20443;-64
2021/06/08 07:36:56;;;;;;;34.30;31.37;;;20.00;99.90;;;;;;4980340;28;20926;-64
2021/06/08 07:39:28;;;;;;;35.63;32.00;;;20.10;99.90;;;;;;4979616;28;20550;-64
2021/06/08 07:42:05;;;;;;;37.33;33.90;;;20.20;99.90;;;;;;4978761;28;20470;-64
2021/06/08 07:44:34;;;;;;;35.70;32.53;;;19.90;99.90;;;;;;4978946;28;20445;-64
2021/06/08 07:47:04;;;;;;;34.77;31.67;;;20.00;99.90;;;;;;4978347;28;20533;-63
2021/06/08 07:49:32;;;;;;;36.37;33.00;;;19.90;99.90;;;;;;4979232;28;20816;-65
2021/06/08 07:51:59;;;;;;;37.60;34.20;;;19.70;99.90;;;;;;4980537;28;20529;-63
2021/06/08 07:54:27;;;;;;;37.90;34.10;;;19.80;99.90;;;;;;4979433;28;20439;-63
2021/06/08 07:56:53;;;;;;;38.23;34.70;;;19.90;99.90;;;;;;4979225;28;20866;-63
2021/06/08 07:59:21;;;;;;;35.23;32.10;;;19.90;99.90;;;;;;4979207;28;20439;-63
2021/06/08 08:01:47;;;;;;;37.87;34.37;;;20.10;99.90;;;;;;4978313;28;20482;-63
2021/06/08 08:04:19;;;;;;;37.90;34.43;;;20.20;99.90;;;;;;4978262;28;20454;-63
2021/06/08 08:06:48;;;;;;;38.70;35.00;;;20.30;99.90;;;;;;4978276;28;20462;-64
2021/06/08 08:09:16;;;;;;;36.33;32.97;;;20.40;99.90;;;;;;4978097;28;20450;-63
2021/06/08 08:11:43;;;;;;;37.90;34.50;;;20.50;99.90;;;;;;4978126;28;20474;-63
2021/06/08 08:14:12;;;;;;;37.23;33.63;;;20.60;99.90;;;;;;4978531;28;20454;-63
2021/06/08 08:16:42;;;;;;;38.47;35.07;;;20.60;99.90;;;;;;4987200;28;20458;-63
2021/06/08 08:19:08;;;;;;;40.70;37.03;;;20.30;99.90;;;;;;4985424;28;20506;-64
2021/06/08 08:21:35;;;;;;;39.37;35.90;;;20.30;99.90;;;;;;4979357;28;20973;-63
2021/06/08 08:24:01;;;;;;;40.73;36.73;;;20.30;99.90;;;;;;4980174;28;20484;-63
2021/06/08 08:26:27;;;;;;;40.40;36.63;;;20.20;99.90;;;;;;4980469;28;20910;-62
2021/06/08 08:28:58;;;;;;;38.50;35.10;;;20.30;99.90;;;;;;4977631;28;21032;-64
2021/06/08 08:31:27;;;;;;;39.90;36.30;;;20.40;99.90;;;;;;4977985;28;20478;-64
2021/06/08 08:33:55;;;;;;;40.30;36.73;;;20.30;99.90;;;;;;4978019;28;20502;-63
2021/06/08 08:36:21;;;;;;;41.63;37.83;;;20.30;99.90;;;;;;4977797;28;20942;-63
2021/06/08 08:38:48;;;;;;;36.53;33.23;;;20.30;99.90;;;;;;4977481;28;20956;-63
2021/06/08 08:41:14;;;;;;;39.00;35.53;;;20.50;99.90;;;;;;4977987;28;20482;-63
2021/06/08 08:43:42;;;;;;;39.90;36.40;;;20.60;99.90;;;;;;4980324;28;20458;-63
2021/06/08 08:46:09;;;;;;;37.50;34.20;;;20.80;99.90;;;;;;4982192;28;20455;-62
2021/06/08 08:48:35;;;;;;;36.90;33.67;;;20.80;99.90;;;;;;4981714;28;20478;-63
2021/06/08 08:51:03;;;;;;;40.97;37.37;;;21.00;99.90;;;;;;4980715;28;20478;-63
2021/06/08 08:53:31;;;;;;;39.83;36.50;;;20.80;99.90;;;;;;4981653;28;20455;-68
2021/06/08 08:55:58;;;;;;;39.20;35.47;;;20.90;99.90;;;;;;4982363;28;20446;-60
2021/06/08 08:58:27;;;;;;;39.10;35.60;;;21.10;99.90;;;;;;4979263;28;20542;-62
2021/06/08 09:00:55;;;;;;;38.20;34.50;;;21.30;99.90;;;;;;4978907;28;20561;-62
2021/06/08 09:03:21;;;;;;;37.20;33.80;;;21.50;99.90;;;;;;4978728;28;20439;-61
2021/06/08 09:05:48;;;;;;;39.40;35.67;;;21.60;99.90;;;;;;4978560;28;20442;-61
2021/06/08 09:08:16;;;;;;;38.33;34.87;;;21.80;99.90;;;;;;4978770;28;20578;-61
2021/06/08 09:10:43;;;;;;;36.10;33.10;;;22.00;99.90;;;;;;4977522;28;20499;-62
2021/06/08 09:13:09;;;;;;;37.60;34.30;;;22.20;99.90;;;;;;4979312;28;20929;-61
2021/06/08 09:15:36;;;;;;;38.13;34.63;;;22.20;99.90;;;;;;4978154;28;20860;-63
2021/06/08 09:18:03;;;;;;;35.73;32.60;;;22.30;99.90;;;;;;4978425;28;20949;-62
2021/06/08 09:20:32;;;;;;;36.90;33.67;;;22.30;99.90;;;;;;4978210;28;20466;-61
2021/06/08 09:23:00;;;;;;;36.83;33.67;;;22.30;99.90;;;;;;4980532;28;20458;-61
2021/06/08 09:25:41;;;;;;;38.10;34.80;;;22.50;99.90;;;;;;4981536;28;20451;-61
2021/06/08 09:28:26;;;;;;;35.17;32.03;;;22.80;99.90;;;;;;4980160;28;20477;-62
2021/06/08 09:30:59;;;;;;;38.57;35.07;;;22.80;99.90;;;;;;4980590;28;20482;-63
2021/06/08 09:33:27;;;;;;;37.53;34.40;;;22.70;99.90;;;;;;4983799;28;20439;-63
2021/06/08 09:35:56;;;;;;;39.77;36.47;;;22.50;99.90;;;;;;4982555;28;20459;-63
2021/06/08 09:38:38;;;;;;;38.33;35.07;;;22.60;99.90;;;;;;4978136;28;20971;-64
2021/06/08 09:41:18;;;;;;;35.80;32.70;;;22.60;99.90;;;;;;4976414;28;20481;-63
2021/06/08 09:43:48;;;;;;;37.43;34.20;;;22.80;99.90;;;;;;4976405;28;20546;-62
2021/06/08 09:46:15;;;;;;;33.83;31.00;;;23.00;99.90;;;;;;4976002;28;20454;-63
2021/06/08 09:48:50;;;;;;;34.33;31.40;;;23.30;99.90;;;;;;4977140;28;20481;-63
2021/06/08 09:51:16;;;;;;;36.40;33.20;;;23.70;99.90;;;;;;4991373;28;20901;-64
2021/06/08 09:53:43;;;;;;;34.20;31.20;;;23.90;99.90;;;;;;4976249;28;20467;-64
2021/06/08 09:56:10;;;;;;;33.57;30.73;;;24.30;99.90;;;;;;4976217;28;20968;-64
2021/06/08 09:58:43;;;;;;;37.07;33.87;;;24.50;99.90;;;;;;4976242;28;20481;-64
2021/06/08 10:01:14;;;;;;;34.20;31.47;;;24.60;99.90;;;;;;4975877;28;20533;-63
2021/06/08 10:03:42;;;;;;;36.47;33.50;;;24.80;99.90;;;;;;4976117;28;20471;-63
2021/06/08 10:06:09;;;;;;;33.77;31.07;;;24.80;99.90;;;;;;4976823;28;20455;-64
2021/06/08 10:08:49;;;;;;;33.03;30.07;;;25.30;99.90;;;;;;4979656;28;20482;-64
2021/06/08 10:11:16;;;;;;;32.13;29.57;;;25.60;99.90;;;;;;4976703;28;20489;-64
2021/06/08 10:13:43;;;;;;;33.80;31.20;;;25.80;99.90;;;;;;4975821;28;20494;-64
2021/06/08 10:16:12;;;;;;;32.97;30.37;;;25.40;99.90;;;;;;4975625;28;20462;-62
2021/06/08 10:18:42;;;;;;;37.77;34.27;;;25.20;99.90;;;;;;4975525;28;20934;-64
2021/06/08 10:21:09;;;;;;;34.17;31.47;;;25.20;99.90;;;;;;4979598;28;20474;-63
2021/06/08 10:23:35;;;;;;;34.10;31.30;;;25.20;99.90;;;;;;4981951;28;20463;-63
2021/06/08 10:26:04;;;;;;;33.90;30.43;;;25.10;99.90;;;;;;4981948;28;20461;-64
2021/06/08 10:28:31;;;;;;;32.07;29.50;;;25.00;99.90;;;;;;4981780;28;20533;-63
2021/06/08 10:30:59;;;;;;;32.13;29.63;;;24.80;99.90;;;;;;4981512;28;20474;-64
2021/06/08 10:33:27;;;;;;;35.13;32.20;;;24.80;99.90;;;;;;4982435;28;20462;-65
2021/06/08 10:35:54;;;;;;;31.17;28.33;;;24.50;99.90;;;;;;4982635;28;20945;-64
2021/06/08 10:38:22;;;;;;;33.27;30.67;;;24.60;99.90;;;;;;4984278;28;20455;-63
2021/06/08 10:40:52;;;;;;;32.30;29.80;;;24.40;99.90;;;;;;4982663;28;20482;-64
2021/06/08 10:43:21;;;;;;;33.83;31.23;;;24.40;99.90;;;;;;4983235;28;20443;-63
2021/06/08 10:45:50;;;;;;;32.10;29.57;;;24.60;99.90;;;;;;4983275;28;20454;-63
2021/06/08 10:48:21;;;;;;;31.60;28.97;;;24.90;99.90;;;;;;4982476;28;21029;-64
2021/06/08 10:50:49;;;;;;;31.57;28.83;;;25.10;99.90;;;;;;4983007;28;20478;-63
2021/06/08 10:53:27;;;;;;;31.53;28.93;;;25.40;99.90;;;;;;4982456;28;20458;-64
2021/06/08 10:55:54;;;;;;;33.07;30.47;;;25.60;99.90;;;;;;4982825;28;20486;-64
2021/06/08 10:58:43;;;;;;;32.60;30.00;;;25.80;99.90;;;;;;4982294;28;20450;-63
2021/06/08 11:01:49;;;;;;;32.10;29.50;;;25.80;99.90;;;;;;4981856;28;20849;-63
2021/06/08 11:04:45;;;;;;;31.83;29.53;;;25.80;99.90;;;;;;4967934;28;20486;-64
2021/06/08 11:07:12;;;;;;;30.37;27.37;;;25.90;99.90;;;;;;4981888;28;20478;-64
2021/06/08 11:09:39;;;;;;;31.13;28.40;;;26.00;99.90;;;;;;4981876;28;20961;-64
2021/06/08 11:12:23;;;;;;;32.10;29.50;;;26.40;99.90;;;;;;4981235;28;20482;-64
2021/06/08 11:15:00;;;;;;;31.27;28.87;;;26.20;99.90;;;;;;4982222;28;20497;-64
2021/06/08 11:17:50;;;;;;;31.63;29.13;;;26.00;99.90;;;;;;4981312;28;20435;-65
2021/06/08 11:20:20;;;;;;;31.37;28.50;;;25.60;99.90;;;;;;4981530;28;20441;-65
2021/06/08 11:22:54;;;;;;;31.53;29.00;;;25.70;99.90;;;;;;4998633;28;20476;-63
2021/06/08 11:25:37;;;;;;;28.63;26.13;;;26.00;99.90;;;;;;4982169;28;20438;-63
2021/06/08 11:28:05;;;;;;;30.43;28.13;;;26.20;99.90;;;;;;4981115;28;20826;-63
2021/06/08 11:30:36;;;;;;;29.47;27.00;;;26.10;99.90;;;;;;4981311;28;20454;-63
2021/06/08 11:33:06;;;;;;;30.53;28.00;;;26.50;99.90;;;;;;4979262;28;20439;-63
2021/06/08 11:35:39;;;;;;;31.70;29.20;;;26.20;99.90;;;;;;4978599;28;20454;-63
2021/06/08 11:38:10;;;;;;;29.33;27.23;;;26.10;99.90;;;;;;4978531;28;20530;-63
2021/06/08 11:40:59;;;;;;;31.47;29.13;;;26.00;99.90;;;;;;4992732;28;20466;-65
2021/06/08 11:43:46;;;;;;;29.93;27.63;;;26.30;99.90;;;;;;4999921;28;20453;-63
2021/06/08 11:46:14;;;;;;;29.73;27.50;;;26.10;99.90;;;;;;5000537;28;20439;-64
2021/06/08 11:48:41;;;;;;;27.17;25.07;;;26.70;99.90;;;;;;5000249;28;20477;-64
2021/06/08 11:51:34;;;;;;;27.73;25.73;;;26.60;99.90;;;;;;4999933;28;20474;-64
2021/06/08 11:54:02;;;;;;;26.67;24.67;;;26.80;99.90;;;;;;4979202;28;20449;-64
2021/06/08 11:56:53;;;;;;;29.60;27.30;;;26.70;99.90;;;;;;4979372;28;20450;-64
2021/06/08 11:59:21;;;;;;;26.67;24.67;;;26.40;99.90;;;;;;4978536;28;20987;-63
2021/06/08 12:01:49;;;;;;;25.10;22.90;;;26.50;99.90;;;;;;4984850;28;20637;-63
2021/06/08 12:04:16;;;;;;;25.33;23.23;;;26.30;99.90;;;;;;4991102;28;20458;-64
2021/06/08 12:07:10;;;;;;;27.13;25.23;;;26.10;99.90;;;;;;4981641;28;20459;-64
2021/06/08 12:09:43;;;;;;;28.60;26.20;;;25.80;99.90;;;;;;4980087;28;20873;-64
2021/06/08 12:12:11;;;;;;;28.13;25.60;;;25.80;99.90;;;;;;4996304;28;20467;-64
2021/06/08 12:14:47;;;;;;;26.53;24.33;;;25.70;99.90;;;;;;4993911;28;20482;-63
2021/06/08 12:17:14;;;;;;;27.07;24.97;;;25.80;99.90;;;;;;4988003;28;20430;-63
2021/06/08 12:19:42;;;;;;;27.57;25.47;;;25.80;99.90;;;;;;4982105;28;20525;-63
2021/06/08 12:22:22;;;;;;;26.97;24.87;;;25.70;99.90;;;;;;4984101;28;20474;-65
2021/06/08 12:25:07;;;;;;;27.30;25.20;;;25.70;99.90;;;;;;4984014;28;20439;-64
2021/06/08 12:27:36;;;;;;;28.33;25.83;;;25.70;99.90;;;;;;4986442;28;20471;-64
2021/06/08 12:30:03;;;;;;;28.87;26.30;;;25.80;99.90;;;;;;4987617;28;20465;-65
2021/06/08 12:32:30;;;;;;;25.63;23.73;;;25.70;99.90;;;;;;4987982;28;20502;-64
2021/06/08 12:34:56;;;;;;;26.40;24.40;;;25.90;99.90;;;;;;4991151;28;20455;-64
2021/06/08 12:37:24;;;;;;;25.67;23.77;;;26.10;99.90;;;;;;4981565;28;20457;-65
2021/06/08 12:39:52;;;;;;;27.53;25.43;;;26.10;99.90;;;;;;4987077;28;20471;-64
2021/06/08 12:42:19;;;;;;;28.07;25.73;;;25.80;99.90;;;;;;4994451;28;20471;-64
2021/06/08 12:44:47;;;;;;;28.73;26.53;;;25.60;99.90;;;;;;4993537;28;20462;-64
2021/06/08 12:47:13;;;;;;;29.10;26.80;;;25.70;99.90;;;;;;4985112;28;20462;-64
2021/06/08 12:49:41;;;;;;;27.53;25.33;;;25.90;99.90;;;;;;4980510;28;20845;-64
2021/06/08 12:52:11;;;;;;;26.97;24.90;;;25.90;99.90;;;;;;4976790;28;20479;-64
2021/06/08 12:54:41;;;;;;;25.73;23.33;;;25.90;99.90;;;;;;4980710;28;20455;-64
2021/06/08 12:57:09;;;;;;;26.37;24.20;;;26.10;99.90;;;;;;4987060;28;20449;-64
2021/06/08 12:59:41;;;;;;;26.63;24.37;;;26.40;99.90;;;;;;4978207;28;20457;-64
2021/06/08 13:02:09;;;;;;;25.53;23.50;;;26.60;99.90;;;;;;4977327;28;20486;-64
2021/06/08 13:04:39;;;;;;;26.00;24.10;;;26.50;99.90;;;;;;4978105;28;20454;-64
2021/06/08 13:07:08;;;;;;;22.97;21.23;;;26.60;99.90;;;;;;4977405;28;20443;-64
2021/06/08 13:09:35;;;;;;;26.60;24.10;;;26.80;99.90;;;;;;4978294;28;20439;-63
2021/06/08 13:12:06;;;;;;;24.03;22.03;;;26.80;99.90;;;;;;4978079;28;20475;-63
2021/06/08 13:14:32;;;;;;;25.43;23.27;;;26.10;99.90;;;;;;4976768;28;20929;-64
2021/06/08 13:16:59;;;;;;;25.77;23.83;;;26.30;99.90;;;;;;4977073;28;20455;-63
2021/06/08 13:19:27;;;;;;;37.53;33.50;;;26.30;99.90;;;;;;4977128;28;20454;-64
2021/06/08 13:21:55;;;;;;;57.07;37.73;;;26.40;99.90;;;;;;4978009;28;20474;-63
2021/06/08 13:24:24;;;;;;;27.00;24.67;;;26.00;99.90;;;;;;4976587;28;20462;-64
2021/06/08 13:26:51;;;;;;;32.93;29.73;;;26.10;99.90;;;;;;4978132;28;20474;-64
2021/06/08 13:29:22;;;;;;;23.08;21.27;;;26.40;99.90;;;;;;4976080;28;20475;-64
2021/06/08 13:31:50;;;;;;;29.03;26.30;;;26.50;99.90;;;;;;4976899;28;20297;-64
2021/06/08 13:34:18;;;;;;;24.90;23.00;;;26.60;99.90;;;;;;4977029;28;20455;-64
2021/06/08 13:36:45;;;;;;;23.57;21.77;;;26.80;99.90;;;;;;4977013;28;20455;-64
2021/06/08 13:39:12;;;;;;;26.13;24.17;;;26.80;99.90;;;;;;4976733;28;20574;-64
2021/06/08 13:41:38;;;;;;;25.20;23.20;;;26.50;99.90;;;;;;4976415;28;20485;-64
2021/06/08 13:44:09;;;;;;;24.03;22.10;;;26.00;99.90;;;;;;4977183;28;20469;-64
2021/06/08 13:46:37;;;;;;;24.10;22.10;;;26.10;99.90;;;;;;4977019;28;20463;-64
2021/06/08 13:49:04;;;;;;;22.93;20.83;;;26.00;99.90;;;;;;4976199;28;20478;-64
2021/06/08 13:51:32;;;;;;;24.10;22.13;;;26.20;99.90;;;;;;4976719;28;20478;-64
2021/06/08 13:54:07;;;;;;;24.43;22.57;;;26.40;99.90;;;;;;4976445;28;20578;-64
2021/06/08 13:56:44;;;;;;;22.40;20.70;;;26.60;99.90;;;;;;4976548;28;20481;-64
2021/06/08 14:01:58;;;;;;;24.90;22.90;;;26.80;99.90;;;;;;4976845;28;20485;-64
2021/06/08 14:04:26;;;;;;;25.00;23.20;;;26.80;99.90;;;;;;4977193;28;20457;-65
2021/06/08 14:06:54;;;;;;;21.77;20.17;;;27.00;99.90;;;;;;4975964;28;20871;-64
2021/06/08 14:09:22;;;;;;;25.10;23.20;;;27.20;99.90;;;;;;4977527;28;20478;-64
2021/06/08 14:11:50;;;;;;;21.33;19.83;;;27.50;99.90;;;;;;4976407;28;20985;-64
2021/06/08 14:14:18;;;;;;;22.97;20.87;;;27.70;99.90;;;;;;4977277;28;20446;-64
2021/06/08 14:16:48;;;;;;;22.83;21.10;;;27.80;99.90;;;;;;4976669;28;20953;-64
2021/06/08 14:19:18;;;;;;;23.63;21.70;;;27.80;99.90;;;;;;4976395;28;20446;-63
2021/06/08 14:21:45;;;;;;;23.00;20.97;;;27.60;99.90;;;;;;4976948;28;20475;-64
2021/06/08 14:24:15;;;;;;;22.83;21.20;;;27.70;99.90;;;;;;4976778;28;20509;-64
2021/06/08 14:26:41;;;;;;;23.13;21.40;;;27.60;99.90;;;;;;4978557;28;20473;-64
2021/06/08 14:29:07;;;;;;;20.70;18.90;;;27.20;99.90;;;;;;4987811;28;20474;-64
2021/06/08 14:31:34;;;;;;;22.30;20.17;;;27.20;99.90;;;;;;4977726;28;20479;-63
2021/06/08 14:34:00;;;;;;;20.83;19.40;;;27.40;99.90;;;;;;4976873;28;20455;-63
2021/06/08 14:36:29;;;;;;;23.20;20.97;;;27.20;99.90;;;;;;4976291;28;20490;-63
2021/06/08 14:38:56;;;;;;;24.53;22.40;;;26.90;99.90;;;;;;4976058;28;20461;-64
2021/06/08 14:41:22;;;;;;;23.30;21.63;;;26.70;99.90;;;;;;4975689;28;20474;-64
2021/06/08 14:43:48;;;;;;;23.27;21.63;;;26.10;99.90;;;;;;4975817;28;20459;-63
2021/06/08 14:46:15;;;;;;;24.37;22.50;;;26.00;99.90;;;;;;4975613;28;20458;-64
2021/06/08 14:48:41;;;;;;;22.90;21.20;;;26.20;99.90;;;;;;4975642;28;20487;-63
2021/06/08 14:51:08;;;;;;;24.50;22.60;;;25.90;99.90;;;;;;4975417;28;20530;-63
2021/06/08 14:53:36;;;;;;;22.50;20.30;;;26.20;99.90;;;;;;4975302;28;20458;-63
2021/06/08 14:56:03;;;;;;;21.40;19.90;;;26.50;99.90;;;;;;4975634;28;20458;-64
2021/06/08 14:58:29;;;;;;;21.13;19.43;;;26.50;99.90;;;;;;4976622;28;20450;-63
2021/06/08 15:00:56;;;;;;;20.73;18.90;;;26.70;99.90;;;;;;4976117;28;20487;-64
2021/06/08 15:03:22;;;;;;;20.40;18.80;;;27.10;99.90;;;;;;4976672;28;20459;-63
2021/06/08 15:05:49;;;;;;;21.70;19.97;;;27.30;99.90;;;;;;4975211;28;20830;-63
2021/06/08 15:08:15;;;;;;;21.83;20.03;;;27.50;99.90;;;;;;4978139;28;20463;-63
2021/06/08 15:10:42;;;;;;;21.73;19.97;;;27.30;99.90;;;;;;4979019;28;20997;-64
2021/06/08 15:13:09;;;;;;;21.53;19.90;;;27.40;99.90;;;;;;4979105;28;20454;-64
2021/06/08 15:15:35;;;;;;;20.70;19.30;;;27.30;99.90;;;;;;4978525;28;20455;-63
2021/06/08 15:18:02;;;;;;;21.70;19.40;;;27.00;99.90;;;;;;4979961;28;20454;-62
2021/06/08 15:20:29;;;;;;;19.57;17.97;;;26.90;99.90;;;;;;4979482;28;20454;-63
2021/06/08 15:22:56;;;;;;;19.27;17.97;;;27.00;99.90;;;;;;4979692;28;20940;-64
2021/06/08 15:25:23;;;;;;;20.20;18.73;;;26.90;99.90;;;;;;4987759;28;20457;-64
2021/06/08 15:27:51;;;;;;;19.93;18.37;;;27.00;99.90;;;;;;4978521;28;20808;-64
2021/06/08 15:30:18;;;;;;;20.40;18.80;;;27.10;99.90;;;;;;4978920;28;20463;-63
2021/06/08 15:32:44;;;;;;;19.83;18.20;;;27.40;99.90;;;;;;4978700;28;20487;-64
2021/06/08 15:35:11;;;;;;;19.77;18.13;;;27.60;99.90;;;;;;4979062;28;20454;-64
2021/06/08 15:37:37;;;;;;;20.33;18.63;;;27.80;99.90;;;;;;4978793;28;21000;-64
2021/06/08 15:40:06;;;;;;;20.07;18.57;;;27.70;99.90;;;;;;4978765;28;20463;-64
2021/06/08 15:42:32;;;;;;;19.03;17.53;;;27.80;99.90;;;;;;4980278;28;20501;-65
2021/06/08 15:45:00;;;;;;;22.03;19.93;;;27.90;99.90;;;;;;4978994;28;20762;-65
2021/06/08 15:47:27;;;;;;;20.43;18.93;;;27.90;99.90;;;;;;4978806;28;20859;-65
2021/06/08 15:49:53;;;;;;;20.60;18.87;;;27.80;99.90;;;;;;4979004;28;20942;-64
2021/06/08 15:52:19;;;;;;;19.83;18.40;;;27.60;99.90;;;;;;4977704;28;21024;-65
2021/06/08 15:54:46;;;;;;;18.97;17.57;;;27.90;99.90;;;;;;4978949;28;20802;-64
2021/06/08 15:57:12;;;;;;;18.70;17.20;;;28.20;99.90;;;;;;4979004;28;20950;-65
2021/06/08 15:59:38;;;;;;;19.77;18.27;;;28.30;99.90;;;;;;4986669;28;20438;-65
2021/06/08 16:02:06;;;;;;;16.77;15.57;;;28.20;99.90;;;;;;4986706;28;21004;-66
2021/06/08 16:04:32;;;;;;;18.57;16.87;;;28.20;99.90;;;;;;4978170;28;20976;-66
2021/06/08 16:07:00;;;;;;;17.80;16.30;;;28.20;99.90;;;;;;4979895;28;20446;-65
2021/06/08 16:09:27;;;;;;;18.73;17.33;;;28.30;99.90;;;;;;4978497;28;20485;-65
2021/06/08 16:11:53;;;;;;;14.87;13.87;;;28.20;99.90;;;;;;4978567;28;20481;-65
2021/06/08 16:14:19;;;;;;;10.57;9.30;;;28.00;99.90;;;;;;4979743;28;20451;-65
2021/06/08 16:16:45;;;;;;;8.10;7.50;;;27.80;99.90;;;;;;4978878;28;20455;-65
2021/06/08 16:19:14;;;;;;;8.03;7.43;;;27.50;99.90;;;;;;4977046;28;20961;-65
2021/06/08 16:21:40;;;;;;;9.97;9.27;;;26.90;99.90;;;;;;4979663;28;20477;-65
2021/06/08 16:24:07;;;;;;;7.93;7.33;;;26.60;99.90;;;;;;4978382;28;20455;-66
2021/06/08 16:26:35;;;;;;;9.67;8.93;;;26.30;99.90;;;;;;4977873;28;20471;-65
2021/06/08 16:29:02;;;;;;;8.93;8.23;;;26.00;99.90;;;;;;4977392;28;20578;-65
2021/06/08 16:31:28;;;;;;;9.93;8.93;;;25.70;99.90;;;;;;4978170;28;20506;-65
2021/06/08 16:33:54;;;;;;;10.63;9.53;;;25.20;99.90;;;;;;4977834;28;20509;-65
2021/06/08 16:36:22;;;;;;;10.40;9.60;;;24.60;99.90;;;;;;4977455;28;20462;-64
2021/06/08 16:38:48;;;;;;;11.93;10.93;;;24.20;99.90;;;;;;4977572;28;20462;-64
2021/06/08 16:41:15;;;;;;;10.50;9.70;;;24.10;99.90;;;;;;4977677;28;20482;-65